Main page
METAR-TAF:

METAR-TAF

Airports :

Istres-Le Tubé Air Base

Istres, France

latitude: 43-31N, longitude: 004-56E, elevation: 23 m

Current weather observation

The report was made 27 minutes ago, at 23:00 UTC
Wind 17 kt from the Northwest
Temperature 8°C
Humidity 49%
Pressure 1013 hPa
Visibility 10 km or more
no clouds below 1500 m and no cumulonimbus

METAR: LFMI 222300Z AUTO 32017KT CAVOK 08/M02 Q1013 TEMPO 34025G35KT

Time: 01:27 (23:27 UTC)

Forecast

The report was made 3 hours and 27 minutes ago, at 20:00 UTC
Forecast valid from 22 at 21 UTC to 23 at 21 UTC
Wind 20 kt from the North/Northwest with gusts up to 30 kt
Visibility 10 km or more
no clouds below 1500 m and no cumulonimbus
Temporary
from 22 at 21 UTC to 23 at 04 UTC
Wind 25 kt from the North/Northwest with gusts up to 35 kt
Becoming
from 23 at 07 UTC to 23 at 09 UTC
Wind 25 kt from the North/Northwest with gusts up to 40 kt

TAF: LFMI 222000Z 2221/2321 34020G30KT CAVOK TX15/2314Z TN07/2304Z TEMPO 2221/2304 34025G35KT BECMG 2307/2309 34025G40KT

Weather observations and forecasts of more than 4000 airports (METAR and TAF reports).

The available stations are represented by yellow and red dots on the map.

Hover mouse over dot to see the name of the station.

Then click to see weather observations and forecasts.

To change the map : click on the green buttons with a black cross to zoom in, on the green button with a dash to zoom out, or on the green arrows for adjacent maps.


METAR-TAF: